Airfield :
LOGIN :

Register | Disclaimer

   EN    FR    IT 

 










Legend :    VFR   Marginal VFR   IFR   Intensive IFR   Very Intensive IFR
Visi :
Ceiling :
>= 8 km
>= 3000ft
5 to 8 km
1000 to 3000 ft
1500m to 5 km
500 to 1000 ft
800 to 1500m
200 to 500 ft
< 800m
< 200 ft
Symbols :   Thunderstorms  Fog  Heavy snow  Heavy precipitations  Wind > 20 kt
SIGMETs :     Misc.  Thunderstorms  Icing  Turbulence  Mountain Waves  Volcanic Ashes






- Airport Elevation : 13 ft
- IATA code : OST


EBOS - Oostend bruges Int.

CURRENT METAR :
  • 261520Z 27014KT 9999 FEW030 17/13 Q1014 NOSIG

EXPIRED METARs :
  • 261450Z 28014KT 9999 FEW020 17/14 Q1014 NOSIG
  • 261420Z 28012KT 9999 FEW020 17/14 Q1013 NOSIG
  • 261350Z 28009KT 9999 FEW024TCU 16/13 Q1013 NOSIG
  • 261320Z VRB02KT 9999 FEW020CB 16/14 Q1013 RETS NOSIG
  • 261250Z 29011KT 8000 -TSRA SCT020CB SCT024 15/11 Q1013 TEMPO 3000 TSRA
  • 261220Z 22006KT 200V270 9999 VCSH FEW020CB SCT024 19/14 Q1013 TEMPO 3000 TSRA
  • 261150Z 21007KT 9999 FEW020TCU 20/14 Q1013 TEMPO 3000 TSRA
  • 261120Z 19007KT 150V220 9999 SCT022 18/14 Q1013 TEMPO 3000 TSRA
  • 261050Z 16006KT 140V210 9999 FEW018 18/15 Q1013 TEMPO 3000 TSRA

TAF TAF EBOS
Valid from the 26 at 12:00 until the 27 at 18:00 UTC


261120Z 2612/2718 27010KT 9999 FEW020 BKN045
PROB40
TEMPO 2612/2615 23017G30KT 3000 SHRA TSRA SCT012 BKN025CB
BECMG 2618/2620 20009KT
PROB30
TEMPO 2702/2706 3000 BR MIFG
BECMG 2708/2710 27012KT
PROB40
TEMPO 2709/2718 4000 SHRA



MET'MAP, your aeronautical weather chart ! - Copyright ORBIFLY December 2007 - Disclaimer

ORBIFLY MET'MAP TEAM :

Programming & Development : Alexandra Zaïnal
Original concept : Baudouin d'Aumeries
Technical & hardware support : Manuel Goepfert
Assistance : Marc-Olivier Méhu




SOURCES & CREDITS :

   NOAA